Time;durP1;ratioP1;P1;durP2;ratioP2;P2;SDS_P1;SDS_P2;PMS_P1;PMS_P2;Temp;Humidity;BMP_temperature;BMP_pressure;BME280_temperature;BME280_humidity;BME280_pressure;Samples;Min_cycle;Max_cycle;Signal;HPM_P1;HPM_P2
2022/10/24 00:00:04;;;;;;;;;0.00;0.00;;;;;;;;4648715;30;30545;-95
2022/10/24 02:29:28;;;;;;;;;0.00;0.00;;;;;;;;5537155;24;30983;-96
2022/10/24 02:32:16;;;;;;;;;;;;;;;;;;;;;
2022/10/24 02:34:53;;;;;;;;;0.00;0.00;;;;;;;;4766733;29;56527;-95
2022/10/24 02:37:26;;;;;;;;;0.00;0.00;;;;;;;;4751820;29;28833;-95
2022/10/24 02:39:53;;;;;;;;;0.00;0.00;;;;;;;;4751888;29;29055;-95
2022/10/24 02:42:20;;;;;;;;;0.00;0.00;;;;;;;;4752349;29;30581;-95
2022/10/24 02:44:47;;;;;;;;;0.00;0.00;;;;;;;;4752485;29;29207;-95
2022/10/24 02:47:20;;;;;;;;;0.00;0.00;;;;;;;;4753291;29;29051;-96
2022/10/24 02:49:46;;;;;;;;;0.00;0.00;;;;;;;;4756347;29;29066;-94
2022/10/24 02:52:11;;;;;;;;;0.00;0.00;;;;;;;;4755478;29;30383;-94
2022/10/24 02:54:36;;;;;;;;;0.00;0.00;;;;;;;;4755656;29;29332;-95
2022/10/24 02:57:02;;;;;;;;;0.00;0.00;;;;;;;;4754751;29;28886;-95
2022/10/24 02:59:28;;;;;;;;;0.00;0.00;;;;;;;;4756992;29;29239;-95
2022/10/24 03:01:56;;;;;;;;;0.00;0.00;;;;;;;;4755841;29;31649;-95
2022/10/24 03:04:24;;;;;;;;;0.00;0.00;;;;;;;;4751316;29;30139;-95
2022/10/24 03:06:51;;;;;;;;;0.00;0.00;;;;;;;;4752675;29;28989;-94
2022/10/24 03:09:17;;;;;;;;;0.00;0.00;;;;;;;;4754369;29;29299;-96
2022/10/24 03:11:42;;;;;;;;;0.00;0.00;;;;;;;;4751120;29;31309;-96
2022/10/24 03:14:09;;;;;;;;;0.00;0.00;;;;;;;;4751303;29;29008;-95
2022/10/24 03:16:35;;;;;;;;;0.00;0.00;;;;;;;;4751192;29;29068;-94
2022/10/24 03:19:05;;;;;;;;;0.00;0.00;;;;;;;;4748526;30;29098;-96
2022/10/24 03:21:30;;;;;;;;;0.00;0.00;;;;;;;;4733390;30;30496;-95
2022/10/24 03:23:56;;;;;;;;;0.00;0.00;;;;;;;;4733564;30;29227;-95
2022/10/24 03:26:24;;;;;;;;;0.00;0.00;;;;;;;;4732943;30;28980;-95
2022/10/24 03:28:49;;;;;;;;;0.00;0.00;;;;;;;;4733406;30;29102;-95
2022/10/24 03:31:14;;;;;;;;;0.00;0.00;;;;;;;;4733019;30;30859;-96
2022/10/24 03:33:39;;;;;;;;;0.00;0.00;;;;;;;;4733650;30;29159;-95
2022/10/24 03:36:07;;;;;;;;;0.00;0.00;;;;;;;;4733395;30;29103;-96
2022/10/24 03:38:32;;;;;;;;;0.00;0.00;;;;;;;;4733416;30;29171;-95
2022/10/24 03:40:58;;;;;;;;;0.00;0.00;;;;;;;;4733168;30;32009;-96
2022/10/24 03:43:23;;;;;;;;;0.00;0.00;;;;;;;;4733096;30;29060;-96
2022/10/24 03:45:48;;;;;;;;;0.00;0.00;;;;;;;;4733494;30;29068;-96
2022/10/24 03:48:14;;;;;;;;;0.00;0.00;;;;;;;;4733266;30;29429;-96
2022/10/24 03:50:42;;;;;;;;;0.00;0.00;;;;;;;;4732952;30;30435;-95
2022/10/24 03:53:07;;;;;;;;;0.00;0.00;;;;;;;;4732996;30;29238;-96
2022/10/24 03:55:33;;;;;;;;;0.00;0.00;;;;;;;;4732516;30;29107;-94
2022/10/24 03:57:58;;;;;;;;;0.00;0.00;;;;;;;;4738365;30;29041;-95
2022/10/24 04:00:26;;;;;;;;;0.00;0.00;;;;;;;;4750805;30;30320;-95
2022/10/24 04:02:52;;;;;;;;;0.00;0.00;;;;;;;;4750807;30;29409;-95
2022/10/24 04:05:20;;;;;;;;;0.00;0.00;;;;;;;;4750910;30;28994;-95
2022/10/24 04:07:45;;;;;;;;;0.00;0.00;;;;;;;;4736166;30;29122;-95
2022/10/24 04:10:13;;;;;;;;;0.00;0.00;;;;;;;;4750230;30;30321;-96
2022/10/24 04:12:38;;;;;;;;;0.00;0.00;;;;;;;;4750489;30;29335;-94
2022/10/24 04:15:04;;;;;;;;;0.00;0.00;;;;;;;;4750999;30;29012;-96
2022/10/24 04:17:32;;;;;;;;;0.00;0.00;;;;;;;;4753240;30;29376;-96
2022/10/24 04:20:24;;;;;;;;;0.00;0.00;;;;;;;;4754036;30;30706;-96
2022/10/24 04:22:48;;;;;;;;;0.00;0.00;;;;;;;;4754080;30;29042;-95
2022/10/24 04:25:14;;;;;;;;;0.00;0.00;;;;;;;;4755368;30;29062;-96
2022/10/24 04:27:39;;;;;;;;;0.00;0.00;;;;;;;;4757568;30;28365;-96
2022/10/24 04:30:08;;;;;;;;;0.00;0.00;;;;;;;;4745902;29;30449;-96
2022/10/24 04:32:34;;;;;;;;;0.00;0.00;;;;;;;;4758920;29;29632;-96
2022/10/24 04:35:00;;;;;;;;;0.00;0.00;;;;;;;;4756456;29;28925;-95
2022/10/24 04:37:25;;;;;;;;;0.00;0.00;;;;;;;;4753341;29;28460;-96
2022/10/24 04:39:58;;;;;;;;;0.00;0.00;;;;;;;;4752928;29;30592;-96
2022/10/24 04:42:26;;;;;;;;;0.00;0.00;;;;;;;;4753184;29;29032;-95
2022/10/24 04:45:09;;;;;;;;;0.00;0.00;;;;;;;;4753190;29;29115;-95
2022/10/24 04:47:34;;;;;;;;;0.00;0.00;;;;;;;;4753110;29;28915;-96
2022/10/24 04:50:00;;;;;;;;;0.00;0.00;;;;;;;;4753132;29;30296;-94
2022/10/24 04:52:25;;;;;;;;;0.00;0.00;;;;;;;;4755988;29;29318;-94
2022/10/24 04:54:50;;;;;;;;;0.00;0.00;;;;;;;;4753890;29;28911;-95
2022/10/24 04:57:18;;;;;;;;;0.00;0.00;;;;;;;;4753874;29;29368;-95
2022/10/24 04:59:43;;;;;;;;;0.00;0.00;;;;;;;;4753433;29;30490;-95
2022/10/24 05:02:12;;;;;;;;;0.00;0.00;;;;;;;;4753406;29;29885;-94
2022/10/24 05:04:37;;;;;;;;;1.00;1.00;;;;;;;;4752616;29;28886;-95
2022/10/24 05:07:02;;;;;;;;;0.00;0.00;;;;;;;;4753367;29;28441;-95
2022/10/24 05:09:28;;;;;;;;;0.00;0.00;;;;;;;;4753203;29;30345;-94
2022/10/24 05:11:54;;;;;;;;;0.00;0.00;;;;;;;;4753253;29;29248;-95
2022/10/24 05:14:19;;;;;;;;;0.00;0.00;;;;;;;;4753175;29;28890;-95
2022/10/24 05:16:47;;;;;;;;;0.00;0.00;;;;;;;;4753100;29;28431;-95
2022/10/24 05:19:14;;;;;;;;;0.00;0.00;;;;;;;;4737145;30;30363;-94
2022/10/24 05:21:40;;;;;;;;;0.00;0.00;;;;;;;;4735288;30;29045;-95
2022/10/24 05:24:05;;;;;;;;;0.00;0.00;;;;;;;;4735332;30;29076;-95
2022/10/24 05:26:31;;;;;;;;;0.00;0.00;;;;;;;;4735365;30;28448;-96
2022/10/24 05:28:56;;;;;;;;;0.00;0.00;;;;;;;;4735085;30;30595;-96
2022/10/24 05:31:21;;;;;;;;;0.00;0.00;;;;;;;;4734720;30;29152;-96
2022/10/24 05:33:46;;;;;;;;;0.00;0.00;;;;;;;;4734734;30;29100;-96
2022/10/24 05:36:12;;;;;;;;;0.00;0.00;;;;;;;;4734217;30;29023;-96
2022/10/24 05:38:52;;;;;;;;;0.00;0.00;;;;;;;;4735064;30;30519;-94
2022/10/24 05:41:17;;;;;;;;;0.00;0.00;;;;;;;;4734762;30;29620;-95
2022/10/24 05:43:45;;;;;;;;;0.00;0.00;;;;;;;;4734991;30;29040;-96
2022/10/24 05:46:13;;;;;;;;;0.00;0.00;;;;;;;;4735486;30;29108;-95
2022/10/24 05:48:43;;;;;;;;;0.00;0.00;;;;;;;;4735184;30;30383;-95
2022/10/24 05:51:09;;;;;;;;;0.00;0.00;;;;;;;;4735491;30;29116;-95
2022/10/24 05:53:34;;;;;;;;;0.00;0.00;;;;;;;;4736472;30;28925;-94
2022/10/24 05:56:02;;;;;;;;;0.00;0.00;;;;;;;;4737170;30;28418;-93
2022/10/24 05:58:35;;;;;;;;;0.00;0.00;;;;;;;;4740171;30;30553;-95
2022/10/24 06:01:00;;;;;;;;;0.00;0.00;;;;;;;;4740707;30;29192;-95
2022/10/24 06:03:25;;;;;;;;;0.00;0.00;;;;;;;;4740243;30;29032;-96
2022/10/24 06:05:53;;;;;;;;;0.00;0.00;;;;;;;;4735563;30;29186;-95
2022/10/24 06:08:26;;;;;;;;;0.00;0.00;;;;;;;;4734403;30;30437;-96
2022/10/24 06:10:52;;;;;;;;;0.00;0.00;;;;;;;;4735711;29;30182;-95
2022/10/24 06:13:17;;;;;;;;;0.00;0.00;;;;;;;;4737832;29;29214;-95
2022/10/24 06:15:43;;;;;;;;;0.00;0.00;;;;;;;;4734303;30;29244;-95
2022/10/24 06:18:12;;;;;;;;;0.00;0.00;;;;;;;;4737290;29;30502;-95
2022/10/24 06:20:38;;;;;;;;;0.00;0.00;;;;;;;;4745033;30;29089;-95
2022/10/24 06:23:03;;;;;;;;;0.00;0.00;;;;;;;;4735925;30;28388;-93
2022/10/24 06:25:28;;;;;;;;;0.00;0.00;;;;;;;;4733809;30;29078;-95
2022/10/24 06:28:02;;;;;;;;;0.00;0.00;;;;;;;;4733558;30;30467;-96
2022/10/24 06:30:27;;;;;;;;;0.00;0.00;;;;;;;;4731668;29;29307;-85
2022/10/24 06:32:53;;;;;;;;;0.00;0.00;;;;;;;;4750379;29;29673;-87
2022/10/24 06:35:18;;;;;;;;;0.00;0.00;;;;;;;;4746721;29;29330;-84
2022/10/24 06:37:43;;;;;;;;;0.00;0.00;;;;;;;;4762057;29;28969;-85
2022/10/24 06:40:09;;;;;;;;;0.00;0.00;;;;;;;;4763571;29;29096;-84
2022/10/24 06:42:34;;;;;;;;;0.00;0.00;;;;;;;;4755111;29;28993;-84
2022/10/24 06:44:59;;;;;;;;;0.00;0.00;;;;;;;;4765786;29;29006;-86
2022/10/24 06:47:24;;;;;;;;;0.00;0.00;;;;;;;;4752727;29;29825;-86
2022/10/24 06:49:50;;;;;;;;;0.00;0.00;;;;;;;;4730742;30;28981;-87
2022/10/24 06:52:15;;;;;;;;;0.00;0.00;;;;;;;;4731251;30;29069;-86
2022/10/24 06:54:40;;;;;;;;;0.00;0.00;;;;;;;;4731069;30;28503;-86
2022/10/24 06:57:05;;;;;;;;;0.00;0.00;;;;;;;;4747185;30;28989;-86
2022/10/24 06:59:31;;;;;;;;;0.00;0.00;;;;;;;;4758600;29;29008;-86
2022/10/24 07:01:57;;;;;;;;;0.00;0.00;;;;;;;;4749206;29;29196;-85
2022/10/24 07:04:22;;;;;;;;;0.00;0.00;;;;;;;;4748605;29;29129;-86
2022/10/24 07:06:48;;;;;;;;;0.00;0.00;;;;;;;;4748587;29;29078;-86
2022/10/24 07:09:13;;;;;;;;;0.00;0.00;;;;;;;;4750608;29;28976;-86
2022/10/24 07:11:38;;;;;;;;;0.00;0.00;;;;;;;;4733993;29;29447;-85
2022/10/24 07:14:04;;;;;;;;;0.00;0.00;;;;;;;;4755046;29;29127;-87
2022/10/24 07:16:30;;;;;;;;;0.00;0.00;;;;;;;;4754116;29;29741;-86
2022/10/24 07:18:55;;;;;;;;;0.00;0.00;;;;;;;;4738570;29;30017;-85
2022/10/24 07:21:22;;;;;;;;;0.00;0.00;;;;;;;;4751252;29;29007;-85
2022/10/24 07:23:48;;;;;;;;;0.00;0.00;;;;;;;;4749227;29;29215;-85
2022/10/24 07:26:15;;;;;;;;;0.00;0.00;;;;;;;;4748877;29;29397;-86
2022/10/24 07:28:41;;;;;;;;;0.00;0.00;;;;;;;;4746058;30;29275;-85
2022/10/24 07:31:07;;;;;;;;;0.00;0.00;;;;;;;;4752281;29;29046;-85
2022/10/24 07:33:33;;;;;;;;;0.00;0.00;;;;;;;;4742258;29;29097;-85
2022/10/24 07:35:58;;;;;;;;;0.00;0.00;;;;;;;;4761222;29;29098;-85
2022/10/24 07:38:23;;;;;;;;;0.00;0.00;;;;;;;;4740456;29;29043;-86
2022/10/24 07:40:49;;;;;;;;;0.00;0.00;;;;;;;;4738800;30;29353;-85
2022/10/24 07:43:14;;;;;;;;;0.00;0.00;;;;;;;;4739674;29;29195;-86
2022/10/24 07:45:39;;;;;;;;;0.00;0.00;;;;;;;;4754961;29;29384;-84
2022/10/24 07:48:05;;;;;;;;;0.00;0.00;;;;;;;;4739003;29;30083;-85
2022/10/24 07:50:31;;;;;;;;;0.00;0.00;;;;;;;;4755679;29;29050;-86
2022/10/24 07:52:56;;;;;;;;;0.00;0.00;;;;;;;;4751032;29;29109;-88
2022/10/24 07:55:21;;;;;;;;;0.00;0.00;;;;;;;;4741940;29;29569;-87
2022/10/24 07:57:47;;;;;;;;;0.00;0.00;;;;;;;;4739220;30;29660;-86
2022/10/24 08:00:12;;;;;;;;;0.00;0.00;;;;;;;;4737058;29;29175;-87
2022/10/24 08:02:37;;;;;;;;;0.00;0.00;;;;;;;;4744427;29;29110;-88
2022/10/24 08:05:02;;;;;;;;;0.00;0.00;;;;;;;;4761383;29;29039;-89
2022/10/24 08:07:28;;;;;;;;;0.00;0.00;;;;;;;;4735141;29;29139;-87
2022/10/24 08:09:54;;;;;;;;;4.00;4.00;;;;;;;;4761331;29;29106;-88
2022/10/24 08:12:19;;;;;;;;;0.00;0.00;;;;;;;;4760976;29;28958;-87
2022/10/24 08:14:45;;;;;;;;;0.00;0.00;;;;;;;;4740647;29;31868;-87
2022/10/24 08:17:10;;;;;;;;;0.00;0.00;;;;;;;;4757710;29;29299;-86
2022/10/24 08:19:35;;;;;;;;;0.00;0.00;;;;;;;;4754009;29;29016;-86
2022/10/24 08:22:01;;;;;;;;;0.00;0.00;;;;;;;;4753895;29;29017;-88
2022/10/24 08:24:26;;;;;;;;;0.00;0.00;;;;;;;;4758436;29;29180;-87
2022/10/24 08:26:54;;;;;;;;;0.00;0.00;;;;;;;;4742151;29;29258;-86
2022/10/24 08:29:21;;;;;;;;;0.00;0.00;;;;;;;;4734223;29;29342;-87
2022/10/24 08:31:50;;;;;;;;;0.00;0.00;;;;;;;;4757770;29;28926;-87
2022/10/24 08:34:16;;;;;;;;;0.00;0.00;;;;;;;;4733982;29;30753;-86
2022/10/24 08:36:42;;;;;;;;;0.00;0.00;;;;;;;;4736188;29;29331;-87
2022/10/24 08:39:07;;;;;;;;;0.00;0.00;;;;;;;;4759172;29;29222;-86
2022/10/24 08:41:32;;;;;;;;;0.00;0.00;;;;;;;;4755679;29;29016;-87
2022/10/24 08:43:59;;;;;;;;;0.00;0.00;;;;;;;;4751336;29;29115;-87
2022/10/24 08:46:47;;;;;;;;;0.00;0.00;;;;;;;;4739757;29;29086;-87
2022/10/24 08:49:16;;;;;;;;;0.00;0.00;;;;;;;;4751673;29;30183;-87
2022/10/24 08:51:44;;;;;;;;;0.00;0.00;;;;;;;;4750748;29;29412;-87
2022/10/24 08:54:11;;;;;;;;;0.00;0.00;;;;;;;;4756274;29;29149;-86
2022/10/24 08:56:36;;;;;;;;;0.00;0.00;;;;;;;;4734470;29;29187;-87
2022/10/24 08:59:03;;;;;;;;;1.00;1.00;;;;;;;;4749582;29;29001;-87
2022/10/24 09:01:32;;;;;;;;;0.00;0.00;;;;;;;;4741287;29;29240;-88
2022/10/24 09:03:59;;;;;;;;;0.00;0.00;;;;;;;;4750274;29;29000;-87
2022/10/24 09:06:25;;;;;;;;;0.00;0.00;;;;;;;;4744891;29;29367;-88
2022/10/24 09:08:54;;;;;;;;;0.00;0.00;;;;;;;;4734644;29;29056;-87
2022/10/24 09:11:27;;;;;;;;;0.00;0.00;;;;;;;;4732839;29;29121;-88
2022/10/24 09:13:52;;;;;;;;;0.00;0.00;;;;;;;;4734624;29;31995;-87
2022/10/24 09:16:20;;;;;;;;;0.00;0.00;;;;;;;;4750716;29;29109;-89
2022/10/24 09:18:47;;;;;;;;;0.00;0.00;;;;;;;;4757899;29;29422;-89
2022/10/24 09:21:13;;;;;;;;;0.00;0.00;;;;;;;;4755530;29;29045;-87
2022/10/24 09:23:39;;;;;;;;;0.00;0.00;;;;;;;;4746216;29;31076;-88
2022/10/24 09:26:06;;;;;;;;;0.00;0.00;;;;;;;;4740985;29;29033;-88
2022/10/24 09:28:34;;;;;;;;;0.00;0.00;;;;;;;;4755852;29;29078;-89
2022/10/24 09:31:02;;;;;;;;;0.00;0.00;;;;;;;;4752145;29;29387;-87
2022/10/24 09:33:34;;;;;;;;;0.00;0.00;;;;;;;;4732759;29;30486;-88
2022/10/24 09:36:00;;;;;;;;;6.00;6.00;;;;;;;;4743023;29;29777;-87
2022/10/24 09:38:33;;;;;;;;;0.00;0.00;;;;;;;;4736441;29;29009;-89
2022/10/24 09:41:01;;;;;;;;;0.00;0.00;;;;;;;;4755303;29;29106;-90
2022/10/24 09:43:36;;;;;;;;;0.00;0.00;;;;;;;;4754733;29;29983;-88
2022/10/24 09:46:04;;;;;;;;;0.00;0.00;;;;;;;;4738898;29;29584;-88
2022/10/24 09:48:34;;;;;;;;;0.00;0.00;;;;;;;;4755885;29;29119;-88
2022/10/24 09:51:00;;;;;;;;;0.00;0.00;;;;;;;;4734846;30;29049;-88
2022/10/24 09:53:26;;;;;;;;;0.00;0.00;;;;;;;;4750313;29;30112;-89
2022/10/24 09:55:53;;;;;;;;;0.00;0.00;;;;;;;;4732669;29;30350;-88
2022/10/24 09:58:20;;;;;;;;;0.00;0.00;;;;;;;;4744395;29;29041;-87
2022/10/24 10:00:55;;;;;;;;;0.00;0.00;;;;;;;;4758600;29;29092;-87
2022/10/24 10:03:21;;;;;;;;;0.00;0.00;;;;;;;;4751479;29;30348;-89
2022/10/24 10:05:46;;;;;;;;;0.00;0.00;;;;;;;;4735622;30;30235;-88
2022/10/24 10:08:19;;;;;;;;;0.00;0.00;;;;;;;;4752573;29;28425;-88
2022/10/24 10:10:54;;;;;;;;;0.00;0.00;;;;;;;;4752701;29;29066;-88
2022/10/24 10:13:23;;;;;;;;;0.00;0.00;;;;;;;;4736599;29;30658;-87
2022/10/24 10:15:53;;;;;;;;;0.00;0.00;;;;;;;;4749248;29;29124;-87
2022/10/24 10:18:18;;;;;;;;;0.00;0.00;;;;;;;;4758082;29;28465;-87
2022/10/24 10:20:43;;;;;;;;;0.00;0.00;;;;;;;;4755699;29;29137;-85
2022/10/24 10:23:15;;;;;;;;;0.00;0.00;;;;;;;;4738502;29;30315;-86
2022/10/24 10:25:40;;;;;;;;;0.00;0.00;;;;;;;;4732263;30;29240;-86
2022/10/24 10:28:17;;;;;;;;;0.00;0.00;;;;;;;;4737920;29;29153;-86
2022/10/24 10:30:47;;;;;;;;;0.00;0.00;;;;;;;;4733172;29;28938;-88
2022/10/24 10:33:39;;;;;;;;;0.00;0.00;;;;;;;;4756936;29;29070;-87
2022/10/24 10:36:12;;;;;;;;;0.00;0.00;;;;;;;;4732263;30;29122;-88
2022/10/24 10:38:49;;;;;;;;;0.00;0.00;;;;;;;;4738075;29;29115;-89
2022/10/24 10:41:32;;;;;;;;;0.00;0.00;;;;;;;;4741080;29;28929;-83
2022/10/24 10:44:06;;;;;;;;;0.00;0.00;;;;;;;;4740452;29;29988;-86
2022/10/24 10:46:50;;;;;;;;;0.00;0.00;;;;;;;;4733377;29;30350;-87
2022/10/24 10:49:23;;;;;;;;;0.00;0.00;;;;;;;;4758085;29;29047;-87
2022/10/24 10:51:51;;;;;;;;;0.00;0.00;;;;;;;;4742647;29;29065;-87
2022/10/24 10:54:26;;;;;;;;;0.00;0.00;;;;;;;;4740071;29;30278;-87
2022/10/24 10:57:03;;;;;;;;;0.00;0.00;;;;;;;;4737268;29;29126;-87
2022/10/24 10:59:48;;;;;;;;;0.00;0.00;;;;;;;;4747299;29;29068;-86
2022/10/24 11:02:39;;;;;;;;;0.75;0.00;;;;;;;;4756503;29;29063;-87
2022/10/24 11:05:07;;;;;;;;;0.00;0.00;;;;;;;;4731099;29;31422;-86
2022/10/24 11:07:41;;;;;;;;;0.00;0.00;;;;;;;;4732593;30;30495;-86
2022/10/24 11:10:09;;;;;;;;;0.00;0.00;;;;;;;;4742236;29;29241;-86
2022/10/24 11:12:36;;;;;;;;;0.00;0.00;;;;;;;;4756812;29;28989;-89
2022/10/24 11:15:19;;;;;;;;;0.00;0.00;;;;;;;;4740412;29;31910;-87
2022/10/24 11:17:49;;;;;;;;;0.00;0.00;;;;;;;;4742294;30;29599;-86
2022/10/24 11:20:31;;;;;;;;;0.00;0.00;;;;;;;;4762781;29;29233;-86
2022/10/24 11:23:04;;;;;;;;;0.00;0.00;;;;;;;;4759477;29;28960;-87
2022/10/24 11:25:41;;;;;;;;;0.00;0.00;;;;;;;;4751696;29;28976;-87
2022/10/24 11:28:28;;;;;;;;;0.00;0.00;;;;;;;;4735666;29;29493;-86
2022/10/24 11:31:22;;;;;;;;;0.00;0.00;;;;;;;;4742850;29;29047;-86
2022/10/24 11:34:06;;;;;;;;;0.00;0.00;;;;;;;;4751299;29;29292;-88
2022/10/24 11:36:35;;;;;;;;;0.00;0.00;;;;;;;;4750977;29;29070;-87
2022/10/24 11:39:05;;;;;;;;;0.00;0.00;;;;;;;;4754390;29;29043;-86
2022/10/24 11:41:38;;;;;;;;;0.00;0.00;;;;;;;;4744785;29;29101;-86
2022/10/24 11:44:13;;;;;;;;;0.00;0.00;;;;;;;;4749459;29;29240;-86
2022/10/24 11:46:41;;;;;;;;;0.00;0.00;;;;;;;;4756748;29;30488;-87
2022/10/24 11:49:31;;;;;;;;;0.00;0.00;;;;;;;;4759359;29;28986;-85
2022/10/24 11:52:04;;;;;;;;;0.00;0.00;;;;;;;;4753952;29;30424;-86
2022/10/24 11:54:32;;;;;;;;;0.00;0.00;;;;;;;;4752583;29;29103;-85
2022/10/24 11:57:00;;;;;;;;;0.00;0.00;;;;;;;;4737165;29;30079;-86
2022/10/24 11:59:26;;;;;;;;;0.00;0.00;;;;;;;;4756391;29;29190;-86
2022/10/24 12:01:54;;;;;;;;;0.00;0.00;;;;;;;;4737436;29;29042;-86
2022/10/24 12:04:22;;;;;;;;;0.00;0.00;;;;;;;;4743267;30;28996;-86
2022/10/24 12:06:53;;;;;;;;;0.00;0.00;;;;;;;;4755652;29;29008;-86
2022/10/24 12:09:24;;;;;;;;;0.00;0.00;;;;;;;;4737206;30;29668;-86
2022/10/24 12:12:10;;;;;;;;;0.00;0.00;;;;;;;;4737414;29;29313;-86
2022/10/24 12:14:44;;;;;;;;;0.00;0.00;;;;;;;;4744232;29;29094;-86
2022/10/24 12:17:12;;;;;;;;;0.00;0.00;;;;;;;;4758352;29;29023;-86
2022/10/24 12:19:42;;;;;;;;;0.00;0.00;;;;;;;;4760297;29;28965;-86
2022/10/24 12:22:14;;;;;;;;;0.00;0.00;;;;;;;;4744604;29;29039;-87
2022/10/24 12:24:39;;;;;;;;;0.00;0.00;;;;;;;;4749506;29;29056;-86
2022/10/24 12:27:06;;;;;;;;;0.00;0.00;;;;;;;;4755794;29;29271;-86
2022/10/24 12:29:33;;;;;;;;;0.00;0.00;;;;;;;;4738906;29;29497;-87
2022/10/24 12:31:59;;;;;;;;;0.00;0.00;;;;;;;;4753616;29;29096;-87
2022/10/24 12:34:26;;;;;;;;;0.00;0.00;;;;;;;;4763245;29;29050;-86
2022/10/24 12:37:10;;;;;;;;;0.00;0.00;;;;;;;;4756541;29;29065;-86
2022/10/24 12:39:46;;;;;;;;;0.00;0.00;;;;;;;;4743184;29;29014;-86
2022/10/24 12:42:31;;;;;;;;;0.00;0.00;;;;;;;;4753859;29;29035;-86
2022/10/24 12:45:00;;;;;;;;;0.00;0.00;;;;;;;;4669774;30;29156;-86
2022/10/24 12:47:30;;;;;;;;;0.00;0.00;;;;;;;;4647543;30;30286;-87
2022/10/24 12:49:55;;;;;;;;;0.00;0.00;;;;;;;;4646348;30;30485;-86
2022/10/24 12:52:29;;;;;;;;;0.00;0.00;;;;;;;;4670877;30;28841;-87
2022/10/24 12:54:55;;;;;;;;;0.00;0.00;;;;;;;;4656225;30;28574;-86
2022/10/24 12:57:21;;;;;;;;;0.00;0.00;;;;;;;;4664760;30;29123;-87
2022/10/24 12:59:57;;;;;;;;;0.00;0.00;;;;;;;;4668714;30;28962;-85
2022/10/24 13:02:31;;;;;;;;;0.00;0.00;;;;;;;;4657886;30;28911;-87
2022/10/24 13:05:17;;;;;;;;;0.00;0.00;;;;;;;;4655733;30;28494;-87
2022/10/24 13:07:42;;;;;;;;;0.00;0.00;;;;;;;;4660056;30;29864;-87
2022/10/24 13:10:26;;;;;;;;;0.00;0.00;;;;;;;;4661245;30;29140;-87
2022/10/24 13:12:51;;;;;;;;;0.00;0.00;;;;;;;;4673768;30;29274;-86
2022/10/24 13:15:34;;;;;;;;;0.00;0.00;;;;;;;;4647151;30;29272;-86
2022/10/24 13:18:02;;;;;;;;;0.00;0.00;;;;;;;;4650780;30;30652;-87
2022/10/24 13:20:36;;;;;;;;;0.00;0.00;;;;;;;;4669797;30;28958;-87
2022/10/24 13:23:04;;;;;;;;;0.00;0.00;;;;;;;;4749096;29;29070;-86
2022/10/24 13:25:34;;;;;;;;;0.00;0.00;;;;;;;;4740276;29;28946;-86
2022/10/24 13:28:18;;;;;;;;;0.00;0.00;;;;;;;;4752989;29;28926;-86
2022/10/24 13:30:43;;;;;;;;;0.00;0.00;;;;;;;;4740413;29;29249;-90
2022/10/24 13:33:27;;;;;;;;;0.00;0.00;;;;;;;;4738091;29;28980;-88
2022/10/24 13:35:53;;;;;;;;;0.00;0.00;;;;;;;;4752690;29;28976;-87
2022/10/24 13:38:20;;;;;;;;;0.00;0.00;;;;;;;;4750075;29;29163;-88
2022/10/24 13:40:45;;;;;;;;;0.00;0.00;;;;;;;;4731503;30;30015;-91
2022/10/24 13:43:18;;;;;;;;;0.00;0.00;;;;;;;;4741265;29;28845;-89
2022/10/24 13:45:54;;;;;;;;;0.00;0.00;;;;;;;;4737575;29;28984;-86
2022/10/24 13:48:20;;;;;;;;;0.00;0.00;;;;;;;;4753006;29;28823;-87
2022/10/24 13:51:01;;;;;;;;;0.00;0.00;;;;;;;;4746478;29;28750;-86
2022/10/24 13:53:30;;;;;;;;;0.00;0.00;;;;;;;;4733575;29;28684;-86
2022/10/24 13:55:56;;;;;;;;;0.00;0.00;;;;;;;;4761456;29;29072;-87
2022/10/24 13:58:23;;;;;;;;;0.00;0.00;;;;;;;;4753239;29;29068;-87
2022/10/24 14:00:55;;;;;;;;;0.00;0.00;;;;;;;;4744647;30;28815;-87
2022/10/24 14:03:22;;;;;;;;;0.00;0.00;;;;;;;;4749132;29;28995;-87
2022/10/24 14:05:49;;;;;;;;;0.00;0.00;;;;;;;;4746334;29;29055;-87
2022/10/24 14:08:25;;;;;;;;;0.00;0.00;;;;;;;;4757831;29;29029;-87
2022/10/24 14:10:51;;;;;;;;;0.00;0.00;;;;;;;;4757055;29;28874;-87
2022/10/24 14:13:18;;;;;;;;;0.00;0.00;;;;;;;;4748155;29;28787;-86
2022/10/24 14:15:52;;;;;;;;;0.00;0.00;;;;;;;;4739946;29;28978;-88
2022/10/24 14:18:18;;;;;;;;;0.00;0.00;;;;;;;;4736917;29;30223;-87
2022/10/24 14:20:49;;;;;;;;;0.00;0.00;;;;;;;;4736694;30;28823;-85
2022/10/24 14:23:22;;;;;;;;;14.00;14.00;;;;;;;;4749186;29;28963;-88
2022/10/24 14:25:52;;;;;;;;;0.00;0.00;;;;;;;;4750635;29;28791;-86
2022/10/24 14:28:19;;;;;;;;;0.00;0.00;;;;;;;;4754308;29;28679;-86
2022/10/24 14:30:52;;;;;;;;;0.00;0.00;;;;;;;;4756567;29;28836;-86
2022/10/24 14:33:24;;;;;;;;;0.00;0.00;;;;;;;;4756613;29;28874;-85
2022/10/24 14:35:51;;;;;;;;;0.00;0.00;;;;;;;;4752424;29;29053;-90
2022/10/24 14:38:17;;;;;;;;;0.00;0.00;;;;;;;;4737387;29;29826;-86
2022/10/24 14:40:43;;;;;;;;;0.00;0.00;;;;;;;;4757073;29;28943;-88
2022/10/24 14:43:16;;;;;;;;;0.00;0.00;;;;;;;;4748416;29;28992;-88
2022/10/24 14:45:41;;;;;;;;;0.00;0.00;;;;;;;;4752305;29;29110;-87
2022/10/24 14:48:23;;;;;;;;;0.00;0.00;;;;;;;;4757934;29;29789;-90
2022/10/24 14:50:48;;;;;;;;;0.00;0.00;;;;;;;;4740336;30;28845;-88
2022/10/24 14:53:24;;;;;;;;;0.00;0.00;;;;;;;;4732534;30;28909;-87
2022/10/24 14:55:51;;;;;;;;;0.00;0.00;;;;;;;;4748356;29;29110;-87
2022/10/24 14:58:29;;;;;;;;;0.00;0.00;;;;;;;;4747346;29;29892;-88
2022/10/24 15:00:55;;;;;;;;;0.00;0.00;;;;;;;;4753370;29;29260;-86
2022/10/24 15:03:21;;;;;;;;;0.00;0.00;;;;;;;;4731383;30;28747;-87
2022/10/24 15:05:55;;;;;;;;;0.00;0.00;;;;;;;;4751849;29;28909;-87
2022/10/24 15:08:25;;;;;;;;;0.00;0.00;;;;;;;;4742733;29;31642;-87
2022/10/24 15:11:01;;;;;;;;;0.00;0.00;;;;;;;;4755431;29;28675;-87
2022/10/24 15:13:30;;;;;;;;;0.00;0.00;;;;;;;;4747986;29;29390;-88
2022/10/24 15:15:56;;;;;;;;;0.00;0.00;;;;;;;;4760375;29;28953;-87
2022/10/24 15:18:24;;;;;;;;;0.00;0.00;;;;;;;;4752156;29;29006;-88
2022/10/24 15:20:51;;;;;;;;;0.00;0.00;;;;;;;;4735071;30;29339;-87
2022/10/24 15:23:27;;;;;;;;;0.00;0.00;;;;;;;;4734259;29;29061;-87
2022/10/24 15:26:01;;;;;;;;;0.00;0.00;;;;;;;;4745824;30;28960;-88
2022/10/24 15:28:45;;;;;;;;;0.00;0.00;;;;;;;;4736384;29;31388;-87
2022/10/24 15:31:14;;;;;;;;;0.00;0.00;;;;;;;;4734214;30;29014;-88
2022/10/24 15:33:39;;;;;;;;;0.00;0.00;;;;;;;;4747884;29;29023;-87
2022/10/24 15:36:05;;;;;;;;;0.00;0.00;;;;;;;;4752707;29;28952;-88
2022/10/24 15:38:30;;;;;;;;;0.00;0.00;;;;;;;;4732024;29;30241;-87
2022/10/24 15:40:57;;;;;;;;;0.00;0.00;;;;;;;;4741611;29;29046;-87
2022/10/24 15:43:22;;;;;;;;;0.00;0.00;;;;;;;;4748706;29;28887;-87
2022/10/24 15:45:47;;;;;;;;;0.00;0.00;;;;;;;;4754319;29;28599;-87
2022/10/24 15:48:12;;;;;;;;;0.00;0.00;;;;;;;;4756784;29;29698;-87
2022/10/24 15:50:42;;;;;;;;;0.00;0.00;;;;;;;;4748961;29;29044;-87
2022/10/24 15:53:13;;;;;;;;;0.00;0.00;;;;;;;;4740456;29;28930;-87
2022/10/24 15:55:38;;;;;;;;;0.00;0.00;;;;;;;;4737378;29;28985;-86
2022/10/24 15:58:08;;;;;;;;;1.00;1.00;;;;;;;;4713649;29;881537;-86
2022/10/24 16:00:33;;;;;;;;;0.00;0.00;;;;;;;;4742672;29;29960;-88
2022/10/24 16:02:59;;;;;;;;;0.00;0.00;;;;;;;;4747433;29;28450;-88
2022/10/24 16:05:27;;;;;;;;;0.00;0.00;;;;;;;;4739452;29;28704;-86
2022/10/24 16:07:53;;;;;;;;;0.00;0.00;;;;;;;;4738330;29;31425;-88
2022/10/24 16:10:19;;;;;;;;;0.00;0.00;;;;;;;;4737457;30;28898;-86
2022/10/24 16:12:45;;;;;;;;;0.00;0.00;;;;;;;;4749245;29;28592;-87
2022/10/24 16:15:17;;;;;;;;;0.00;0.00;;;;;;;;4757107;29;28691;-88
2022/10/24 16:17:42;;;;;;;;;0.00;0.00;;;;;;;;4759612;29;28539;-87
2022/10/24 16:20:07;;;;;;;;;0.00;0.00;;;;;;;;4741237;29;28572;-87
2022/10/24 16:22:32;;;;;;;;;0.00;0.00;;;;;;;;4750050;29;28514;-87
2022/10/24 16:24:58;;;;;;;;;0.00;0.00;;;;;;;;4757657;29;28508;-87
2022/10/24 16:27:23;;;;;;;;;0.00;0.00;;;;;;;;4735213;29;30242;-87
2022/10/24 16:29:48;;;;;;;;;0.00;0.00;;;;;;;;4753512;29;28423;-87
2022/10/24 16:32:13;;;;;;;;;0.00;0.00;;;;;;;;4752902;29;28705;-87
2022/10/24 16:34:38;;;;;;;;;0.00;0.00;;;;;;;;4741856;29;28557;-87
2022/10/24 16:37:03;;;;;;;;;0.00;0.00;;;;;;;;4752518;29;28414;-87
2022/10/24 16:39:29;;;;;;;;;0.00;0.00;;;;;;;;4761236;29;28567;-87
2022/10/24 16:41:54;;;;;;;;;0.00;0.00;;;;;;;;4753223;29;28724;-87
2022/10/24 16:44:19;;;;;;;;;0.00;0.00;;;;;;;;4754563;29;28538;-87
2022/10/24 16:46:45;;;;;;;;;0.00;0.00;;;;;;;;4737277;29;30640;-87
2022/10/24 16:49:10;;;;;;;;;0.00;0.00;;;;;;;;4740084;30;30128;-86
2022/10/24 16:51:35;;;;;;;;;0.00;0.00;;;;;;;;4735824;29;28486;-87
2022/10/24 16:54:01;;;;;;;;;0.00;0.00;;;;;;;;4750220;29;28656;-87
2022/10/24 16:56:27;;;;;;;;;0.00;0.00;;;;;;;;4738586;29;31040;-86
2022/10/24 16:58:52;;;;;;;;;0.00;0.00;;;;;;;;4755333;29;28478;-87
2022/10/24 17:01:18;;;;;;;;;0.00;0.00;;;;;;;;4752558;29;28517;-87
2022/10/24 17:03:46;;;;;;;;;0.00;0.00;;;;;;;;4750205;29;28608;-87
2022/10/24 17:06:11;;;;;;;;;0.00;0.00;;;;;;;;4753228;29;28760;-87
2022/10/24 17:08:37;;;;;;;;;0.00;0.00;;;;;;;;4736101;29;28916;-87
2022/10/24 17:11:02;;;;;;;;;0.00;0.00;;;;;;;;4757489;29;28505;-87
2022/10/24 17:13:28;;;;;;;;;0.00;0.00;;;;;;;;4753948;29;28517;-87
2022/10/24 17:15:53;;;;;;;;;0.00;0.00;;;;;;;;4752781;29;28462;-87
2022/10/24 17:18:22;;;;;;;;;0.00;0.00;;;;;;;;4755485;29;28503;-87